sensor_id;sensor_type;location;lat;lon;timestamp;P1;durP1;ratioP1;P2;durP2;ratioP2
2624;SDS011;1322;53.256;10.386;2022-08-19T00:01:29;12.93;;;10.27;;
2624;SDS011;1322;53.256;10.386;2022-08-19T00:03:56;11.00;;;9.53;;
2624;SDS011;1322;53.256;10.386;2022-08-19T00:06:23;11.63;;;9.33;;
2624;SDS011;1322;53.256;10.386;2022-08-19T00:08:49;10.73;;;9.60;;
2624;SDS011;1322;53.256;10.386;2022-08-19T00:11:16;15.10;;;10.10;;
2624;SDS011;1322;53.256;10.386;2022-08-19T00:13:42;14.77;;;9.50;;
2624;SDS011;1322;53.256;10.386;2022-08-19T00:16:08;10.03;;;9.00;;
2624;SDS011;1322;53.256;10.386;2022-08-19T00:18:33;12.67;;;9.10;;
2624;SDS011;1322;53.256;10.386;2022-08-19T00:20:59;13.67;;;9.97;;
2624;SDS011;1322;53.256;10.386;2022-08-19T00:23:26;13.13;;;9.30;;
2624;SDS011;1322;53.256;10.386;2022-08-19T00:25:52;10.63;;;8.50;;
2624;SDS011;1322;53.256;10.386;2022-08-19T00:28:18;12.13;;;8.33;;
2624;SDS011;1322;53.256;10.386;2022-08-19T00:30:45;11.03;;;8.43;;
2624;SDS011;1322;53.256;10.386;2022-08-19T00:33:11;10.50;;;9.23;;
2624;SDS011;1322;53.256;10.386;2022-08-19T00:35:38;12.10;;;9.53;;
2624;SDS011;1322;53.256;10.386;2022-08-19T00:38:04;12.70;;;10.97;;
2624;SDS011;1322;53.256;10.386;2022-08-19T00:40:31;11.33;;;9.57;;
2624;SDS011;1322;53.256;10.386;2022-08-19T00:42:57;11.83;;;9.33;;
2624;SDS011;1322;53.256;10.386;2022-08-19T00:45:24;10.50;;;9.20;;
2624;SDS011;1322;53.256;10.386;2022-08-19T00:47:50;11.50;;;8.67;;
2624;SDS011;1322;53.256;10.386;2022-08-19T00:50:17;15.00;;;8.13;;
2624;SDS011;1322;53.256;10.386;2022-08-19T00:52:45;10.93;;;8.83;;
2624;SDS011;1322;53.256;10.386;2022-08-19T00:55:23;8.73;;;7.83;;
2624;SDS011;1322;53.256;10.386;2022-08-19T00:57:52;11.83;;;8.17;;
2624;SDS011;1322;53.256;10.386;2022-08-19T01:00:22;11.17;;;8.83;;
2624;SDS011;1322;53.256;10.386;2022-08-19T01:02:49;9.40;;;8.17;;
2624;SDS011;1322;53.256;10.386;2022-08-19T01:05:20;10.50;;;9.13;;
2624;SDS011;1322;53.256;10.386;2022-08-19T01:07:53;17.50;;;9.10;;
2624;SDS011;1322;53.256;10.386;2022-08-19T01:10:21;12.20;;;8.67;;
2624;SDS011;1322;53.256;10.386;2022-08-19T01:12:51;9.70;;;8.10;;
2624;SDS011;1322;53.256;10.386;2022-08-19T01:15:20;10.30;;;9.17;;
2624;SDS011;1322;53.256;10.386;2022-08-19T01:17:49;9.70;;;8.70;;
2624;SDS011;1322;53.256;10.386;2022-08-19T01:20:18;13.07;;;8.70;;
2624;SDS011;1322;53.256;10.386;2022-08-19T01:22:51;10.33;;;9.33;;
2624;SDS011;1322;53.256;10.386;2022-08-19T01:25:20;9.73;;;8.73;;
2624;SDS011;1322;53.256;10.386;2022-08-19T01:27:49;10.33;;;9.33;;
2624;SDS011;1322;53.256;10.386;2022-08-19T01:30:18;14.03;;;9.23;;
2624;SDS011;1322;53.256;10.386;2022-08-19T01:32:49;11.77;;;9.30;;
2624;SDS011;1322;53.256;10.386;2022-08-19T01:35:16;10.67;;;9.57;;
2624;SDS011;1322;53.256;10.386;2022-08-19T01:37:50;11.10;;;9.83;;
2624;SDS011;1322;53.256;10.386;2022-08-19T01:40:19;15.57;;;8.93;;
2624;SDS011;1322;53.256;10.386;2022-08-19T01:42:47;12.37;;;8.97;;
2624;SDS011;1322;53.256;10.386;2022-08-19T01:45:14;12.43;;;9.87;;
2624;SDS011;1322;53.256;10.386;2022-08-19T01:47:40;11.10;;;8.83;;
2624;SDS011;1322;53.256;10.386;2022-08-19T01:50:07;10.53;;;9.20;;
2624;SDS011;1322;53.256;10.386;2022-08-19T01:52:38;12.73;;;9.70;;
2624;SDS011;1322;53.256;10.386;2022-08-19T01:55:07;13.60;;;9.50;;
2624;SDS011;1322;53.256;10.386;2022-08-19T01:57:34;11.40;;;9.50;;
2624;SDS011;1322;53.256;10.386;2022-08-19T02:00:01;9.13;;;8.23;;
2624;SDS011;1322;53.256;10.386;2022-08-19T02:02:32;11.73;;;9.80;;
2624;SDS011;1322;53.256;10.386;2022-08-19T02:04:58;10.83;;;7.73;;
2624;SDS011;1322;53.256;10.386;2022-08-19T02:07:24;10.30;;;9.23;;
2624;SDS011;1322;53.256;10.386;2022-08-19T02:09:49;12.70;;;8.70;;
2624;SDS011;1322;53.256;10.386;2022-08-19T02:12:15;11.83;;;9.40;;
2624;SDS011;1322;53.256;10.386;2022-08-19T02:14:41;11.43;;;9.07;;
2624;SDS011;1322;53.256;10.386;2022-08-19T02:17:07;10.23;;;9.17;;
2624;SDS011;1322;53.256;10.386;2022-08-19T02:19:32;13.50;;;9.30;;
2624;SDS011;1322;53.256;10.386;2022-08-19T02:21:58;13.20;;;8.63;;
2624;SDS011;1322;53.256;10.386;2022-08-19T02:24:25;10.77;;;8.40;;
2624;SDS011;1322;53.256;10.386;2022-08-19T02:26:51;12.00;;;8.47;;
2624;SDS011;1322;53.256;10.386;2022-08-19T02:29:17;10.93;;;8.43;;
2624;SDS011;1322;53.256;10.386;2022-08-19T02:31:43;10.73;;;7.87;;
2624;SDS011;1322;53.256;10.386;2022-08-19T02:34:08;10.43;;;8.00;;
2624;SDS011;1322;53.256;10.386;2022-08-19T02:36:34;9.50;;;7.70;;
2624;SDS011;1322;53.256;10.386;2022-08-19T02:39:00;10.90;;;8.87;;
2624;SDS011;1322;53.256;10.386;2022-08-19T02:41:27;11.17;;;7.93;;
2624;SDS011;1322;53.256;10.386;2022-08-19T02:43:56;8.90;;;7.40;;
2624;SDS011;1322;53.256;10.386;2022-08-19T02:46:24;11.60;;;7.87;;
2624;SDS011;1322;53.256;10.386;2022-08-19T02:48:52;9.77;;;8.73;;
2624;SDS011;1322;53.256;10.386;2022-08-19T02:51:21;9.37;;;8.37;;
2624;SDS011;1322;53.256;10.386;2022-08-19T02:53:52;10.30;;;9.17;;
2624;SDS011;1322;53.256;10.386;2022-08-19T02:56:18;10.17;;;8.70;;
2624;SDS011;1322;53.256;10.386;2022-08-19T02:58:47;9.70;;;8.73;;
2624;SDS011;1322;53.256;10.386;2022-08-19T03:03:49;10.57;;;8.90;;
2624;SDS011;1322;53.256;10.386;2022-08-19T03:06:16;19.67;;;12.27;;
2624;SDS011;1322;53.256;10.386;2022-08-19T03:08:42;12.10;;;10.43;;
2624;SDS011;1322;53.256;10.386;2022-08-19T03:11:28;11.87;;;9.30;;
2624;SDS011;1322;53.256;10.386;2022-08-19T03:13:55;13.77;;;10.80;;
2624;SDS011;1322;53.256;10.386;2022-08-19T03:16:23;14.00;;;11.70;;
2624;SDS011;1322;53.256;10.386;2022-08-19T03:18:51;14.97;;;11.90;;
2624;SDS011;1322;53.256;10.386;2022-08-19T03:21:22;19.63;;;14.97;;
2624;SDS011;1322;53.256;10.386;2022-08-19T03:23:53;18.93;;;14.50;;
2624;SDS011;1322;53.256;10.386;2022-08-19T03:26:19;19.87;;;14.70;;
2624;SDS011;1322;53.256;10.386;2022-08-19T03:28:44;21.43;;;14.20;;
2624;SDS011;1322;53.256;10.386;2022-08-19T03:31:14;16.53;;;12.80;;
2624;SDS011;1322;53.256;10.386;2022-08-19T03:33:42;21.90;;;15.10;;
2624;SDS011;1322;53.256;10.386;2022-08-19T03:36:09;17.60;;;11.73;;
2624;SDS011;1322;53.256;10.386;2022-08-19T03:38:43;20.13;;;13.50;;
2624;SDS011;1322;53.256;10.386;2022-08-19T03:41:18;18.33;;;14.07;;
2624;SDS011;1322;53.256;10.386;2022-08-19T03:43:47;20.63;;;14.77;;
2624;SDS011;1322;53.256;10.386;2022-08-19T03:46:19;18.07;;;12.90;;
2624;SDS011;1322;53.256;10.386;2022-08-19T03:48:46;23.00;;;12.53;;
2624;SDS011;1322;53.256;10.386;2022-08-19T03:51:21;19.03;;;11.90;;
2624;SDS011;1322;53.256;10.386;2022-08-19T03:53:49;13.77;;;11.60;;
2624;SDS011;1322;53.256;10.386;2022-08-19T03:56:15;18.30;;;13.57;;
2624;SDS011;1322;53.256;10.386;2022-08-19T03:58:41;16.57;;;13.40;;
2624;SDS011;1322;53.256;10.386;2022-08-19T04:01:08;16.20;;;12.00;;
2624;SDS011;1322;53.256;10.386;2022-08-19T04:03:35;20.10;;;12.53;;
2624;SDS011;1322;53.256;10.386;2022-08-19T04:06:22;16.40;;;11.90;;
2624;SDS011;1322;53.256;10.386;2022-08-19T04:08:55;16.70;;;11.37;;
2624;SDS011;1322;53.256;10.386;2022-08-19T04:11:24;13.97;;;11.43;;
2624;SDS011;1322;53.256;10.386;2022-08-19T04:13:52;18.73;;;12.00;;
2624;SDS011;1322;53.256;10.386;2022-08-19T04:16:19;16.77;;;10.83;;
2624;SDS011;1322;53.256;10.386;2022-08-19T04:18:49;12.50;;;9.87;;
2624;SDS011;1322;53.256;10.386;2022-08-19T04:21:15;15.30;;;11.13;;
2624;SDS011;1322;53.256;10.386;2022-08-19T04:23:43;15.03;;;10.17;;
2624;SDS011;1322;53.256;10.386;2022-08-19T04:26:24;13.40;;;10.53;;
2624;SDS011;1322;53.256;10.386;2022-08-19T04:28:56;13.43;;;10.27;;
2624;SDS011;1322;53.256;10.386;2022-08-19T04:31:22;10.77;;;8.83;;
2624;SDS011;1322;53.256;10.386;2022-08-19T04:33:56;16.97;;;11.10;;
2624;SDS011;1322;53.256;10.386;2022-08-19T04:36:27;15.87;;;10.50;;
2624;SDS011;1322;53.256;10.386;2022-08-19T04:38:56;22.90;;;10.30;;
2624;SDS011;1322;53.256;10.386;2022-08-19T04:41:23;11.93;;;9.40;;
2624;SDS011;1322;53.256;10.386;2022-08-19T04:44:07;11.90;;;10.07;;
2624;SDS011;1322;53.256;10.386;2022-08-19T04:46:33;17.60;;;10.47;;
2624;SDS011;1322;53.256;10.386;2022-08-19T04:49:00;20.60;;;11.40;;
2624;SDS011;1322;53.256;10.386;2022-08-19T04:51:26;14.40;;;11.63;;
2624;SDS011;1322;53.256;10.386;2022-08-19T04:53:52;14.03;;;10.87;;
2624;SDS011;1322;53.256;10.386;2022-08-19T04:56:18;12.50;;;11.00;;
2624;SDS011;1322;53.256;10.386;2022-08-19T04:58:45;15.47;;;11.80;;
2624;SDS011;1322;53.256;10.386;2022-08-19T05:01:12;16.87;;;11.70;;
2624;SDS011;1322;53.256;10.386;2022-08-19T05:03:41;17.20;;;11.60;;
2624;SDS011;1322;53.256;10.386;2022-08-19T05:06:09;16.20;;;11.90;;
2624;SDS011;1322;53.256;10.386;2022-08-19T05:08:38;20.03;;;11.10;;
2624;SDS011;1322;53.256;10.386;2022-08-19T05:11:15;17.93;;;12.67;;
2624;SDS011;1322;53.256;10.386;2022-08-19T05:13:45;16.37;;;11.77;;
2624;SDS011;1322;53.256;10.386;2022-08-19T05:16:12;16.13;;;11.63;;
2624;SDS011;1322;53.256;10.386;2022-08-19T05:18:38;15.27;;;11.80;;
2624;SDS011;1322;53.256;10.386;2022-08-19T05:21:23;14.47;;;11.13;;
2624;SDS011;1322;53.256;10.386;2022-08-19T05:24:07;15.53;;;10.47;;
2624;SDS011;1322;53.256;10.386;2022-08-19T05:26:34;16.03;;;11.93;;
2624;SDS011;1322;53.256;10.386;2022-08-19T05:29:03;14.73;;;11.60;;
2624;SDS011;1322;53.256;10.386;2022-08-19T05:31:29;16.67;;;11.10;;
2624;SDS011;1322;53.256;10.386;2022-08-19T05:33:55;19.00;;;12.77;;
2624;SDS011;1322;53.256;10.386;2022-08-19T05:36:24;16.07;;;12.30;;
2624;SDS011;1322;53.256;10.386;2022-08-19T05:38:57;15.80;;;11.63;;
2624;SDS011;1322;53.256;10.386;2022-08-19T05:41:23;16.10;;;12.87;;
2624;SDS011;1322;53.256;10.386;2022-08-19T05:43:54;18.43;;;12.10;;
2624;SDS011;1322;53.256;10.386;2022-08-19T05:46:21;17.47;;;12.73;;
2624;SDS011;1322;53.256;10.386;2022-08-19T05:48:48;17.20;;;12.10;;
2624;SDS011;1322;53.256;10.386;2022-08-19T05:51:13;24.43;;;11.70;;
2624;SDS011;1322;53.256;10.386;2022-08-19T05:53:41;16.43;;;13.10;;
2624;SDS011;1322;53.256;10.386;2022-08-19T05:56:08;15.63;;;10.73;;
2624;SDS011;1322;53.256;10.386;2022-08-19T05:58:36;23.23;;;13.30;;
2624;SDS011;1322;53.256;10.386;2022-08-19T06:01:03;17.00;;;13.30;;
2624;SDS011;1322;53.256;10.386;2022-08-19T06:03:34;21.50;;;14.07;;
2624;SDS011;1322;53.256;10.386;2022-08-19T06:06:02;16.60;;;13.43;;
2624;SDS011;1322;53.256;10.386;2022-08-19T06:08:28;24.50;;;16.07;;
2624;SDS011;1322;53.256;10.386;2022-08-19T06:10:54;18.87;;;16.53;;
2624;SDS011;1322;53.256;10.386;2022-08-19T06:13:21;19.57;;;14.57;;
2624;SDS011;1322;53.256;10.386;2022-08-19T06:15:47;22.23;;;14.37;;
2624;SDS011;1322;53.256;10.386;2022-08-19T06:18:13;20.30;;;14.47;;
2624;SDS011;1322;53.256;10.386;2022-08-19T06:20:40;23.77;;;14.60;;
2624;SDS011;1322;53.256;10.386;2022-08-19T06:23:06;23.47;;;14.83;;
2624;SDS011;1322;53.256;10.386;2022-08-19T06:25:33;28.23;;;16.73;;
2624;SDS011;1322;53.256;10.386;2022-08-19T06:27:59;35.73;;;20.77;;
2624;SDS011;1322;53.256;10.386;2022-08-19T06:30:25;29.07;;;19.30;;
2624;SDS011;1322;53.256;10.386;2022-08-19T06:32:51;34.40;;;20.03;;
2624;SDS011;1322;53.256;10.386;2022-08-19T06:35:17;36.07;;;22.17;;
2624;SDS011;1322;53.256;10.386;2022-08-19T06:37:46;34.87;;;21.53;;
2624;SDS011;1322;53.256;10.386;2022-08-19T06:40:11;32.93;;;23.43;;
2624;SDS011;1322;53.256;10.386;2022-08-19T06:42:37;37.60;;;23.40;;
2624;SDS011;1322;53.256;10.386;2022-08-19T06:45:03;35.00;;;25.27;;
2624;SDS011;1322;53.256;10.386;2022-08-19T06:47:30;37.20;;;26.80;;
2624;SDS011;1322;53.256;10.386;2022-08-19T06:49:57;38.70;;;26.13;;
2624;SDS011;1322;53.256;10.386;2022-08-19T06:52:29;46.50;;;28.37;;
2624;SDS011;1322;53.256;10.386;2022-08-19T06:54:57;38.90;;;24.77;;
2624;SDS011;1322;53.256;10.386;2022-08-19T06:57:27;31.97;;;23.87;;
2624;SDS011;1322;53.256;10.386;2022-08-19T06:59:57;34.23;;;24.30;;
2624;SDS011;1322;53.256;10.386;2022-08-19T07:02:25;32.30;;;22.53;;
2624;SDS011;1322;53.256;10.386;2022-08-19T07:04:51;33.40;;;23.97;;
2624;SDS011;1322;53.256;10.386;2022-08-19T07:07:18;38.67;;;26.77;;
2624;SDS011;1322;53.256;10.386;2022-08-19T07:09:45;33.40;;;24.27;;
2624;SDS011;1322;53.256;10.386;2022-08-19T07:12:11;41.00;;;25.33;;
2624;SDS011;1322;53.256;10.386;2022-08-19T07:14:40;35.77;;;24.30;;
2624;SDS011;1322;53.256;10.386;2022-08-19T07:17:09;37.37;;;26.20;;
2624;SDS011;1322;53.256;10.386;2022-08-19T07:19:36;36.93;;;26.60;;
2624;SDS011;1322;53.256;10.386;2022-08-19T07:22:04;36.53;;;25.90;;
2624;SDS011;1322;53.256;10.386;2022-08-19T07:24:31;36.37;;;25.47;;
2624;SDS011;1322;53.256;10.386;2022-08-19T07:26:58;39.70;;;28.87;;
2624;SDS011;1322;53.256;10.386;2022-08-19T07:29:31;37.73;;;28.10;;
2624;SDS011;1322;53.256;10.386;2022-08-19T07:31:58;49.17;;;28.90;;
2624;SDS011;1322;53.256;10.386;2022-08-19T07:34:25;36.20;;;27.77;;
2624;SDS011;1322;53.256;10.386;2022-08-19T07:36:53;43.77;;;29.00;;
2624;SDS011;1322;53.256;10.386;2022-08-19T07:39:21;39.70;;;28.03;;
2624;SDS011;1322;53.256;10.386;2022-08-19T07:41:49;41.40;;;29.97;;
2624;SDS011;1322;53.256;10.386;2022-08-19T07:44:15;45.37;;;31.93;;
2624;SDS011;1322;53.256;10.386;2022-08-19T07:46:43;47.90;;;31.50;;
2624;SDS011;1322;53.256;10.386;2022-08-19T07:49:10;42.70;;;29.00;;
2624;SDS011;1322;53.256;10.386;2022-08-19T07:51:42;45.60;;;31.50;;
2624;SDS011;1322;53.256;10.386;2022-08-19T07:54:09;42.40;;;29.27;;
2624;SDS011;1322;53.256;10.386;2022-08-19T07:56:36;43.30;;;29.17;;
2624;SDS011;1322;53.256;10.386;2022-08-19T07:59:02;50.53;;;31.73;;
2624;SDS011;1322;53.256;10.386;2022-08-19T08:01:28;48.30;;;33.67;;
2624;SDS011;1322;53.256;10.386;2022-08-19T08:03:54;56.03;;;32.57;;
2624;SDS011;1322;53.256;10.386;2022-08-19T08:06:40;51.87;;;30.53;;
2624;SDS011;1322;53.256;10.386;2022-08-19T08:09:34;53.83;;;31.40;;
2624;SDS011;1322;53.256;10.386;2022-08-19T08:14:42;52.07;;;33.50;;
2624;SDS011;1322;53.256;10.386;2022-08-19T08:17:11;46.90;;;31.30;;
2624;SDS011;1322;53.256;10.386;2022-08-19T08:19:38;49.87;;;32.47;;
2624;SDS011;1322;53.256;10.386;2022-08-19T08:22:06;56.47;;;34.30;;
2624;SDS011;1322;53.256;10.386;2022-08-19T08:24:32;54.33;;;33.40;;
2624;SDS011;1322;53.256;10.386;2022-08-19T08:26:59;63.33;;;37.80;;
2624;SDS011;1322;53.256;10.386;2022-08-19T08:29:26;48.03;;;32.50;;
2624;SDS011;1322;53.256;10.386;2022-08-19T08:31:53;49.40;;;30.33;;
2624;SDS011;1322;53.256;10.386;2022-08-19T08:34:19;54.03;;;30.57;;
2624;SDS011;1322;53.256;10.386;2022-08-19T08:36:46;45.23;;;30.47;;
2624;SDS011;1322;53.256;10.386;2022-08-19T08:39:13;43.03;;;30.93;;
2624;SDS011;1322;53.256;10.386;2022-08-19T08:41:50;48.23;;;30.30;;
2624;SDS011;1322;53.256;10.386;2022-08-19T08:47:02;51.23;;;29.20;;
2624;SDS011;1322;53.256;10.386;2022-08-19T08:52:05;42.60;;;28.40;;
2624;SDS011;1322;53.256;10.386;2022-08-19T08:54:35;44.30;;;28.50;;
2624;SDS011;1322;53.256;10.386;2022-08-19T08:57:07;44.90;;;27.33;;
2624;SDS011;1322;53.256;10.386;2022-08-19T08:59:39;51.27;;;28.90;;
2624;SDS011;1322;53.256;10.386;2022-08-19T09:02:06;41.43;;;26.77;;
2624;SDS011;1322;53.256;10.386;2022-08-19T09:04:33;38.90;;;27.70;;
2624;SDS011;1322;53.256;10.386;2022-08-19T09:07:13;39.50;;;27.37;;
2624;SDS011;1322;53.256;10.386;2022-08-19T09:09:56;41.17;;;24.03;;
2624;SDS011;1322;53.256;10.386;2022-08-19T09:12:53;35.13;;;23.17;;
2624;SDS011;1322;53.256;10.386;2022-08-19T09:15:47;38.63;;;24.73;;
2624;SDS011;1322;53.256;10.386;2022-08-19T09:18:19;35.07;;;24.97;;
2624;SDS011;1322;53.256;10.386;2022-08-19T09:20:45;41.70;;;24.37;;
2624;SDS011;1322;53.256;10.386;2022-08-19T09:23:12;37.10;;;24.50;;
2624;SDS011;1322;53.256;10.386;2022-08-19T09:25:38;36.97;;;23.27;;
2624;SDS011;1322;53.256;10.386;2022-08-19T09:28:05;31.40;;;23.70;;
2624;SDS011;1322;53.256;10.386;2022-08-19T09:30:38;34.27;;;23.90;;
2624;SDS011;1322;53.256;10.386;2022-08-19T09:33:06;36.23;;;23.03;;
2624;SDS011;1322;53.256;10.386;2022-08-19T09:35:32;34.03;;;22.67;;
2624;SDS011;1322;53.256;10.386;2022-08-19T09:37:58;37.03;;;22.90;;
2624;SDS011;1322;53.256;10.386;2022-08-19T09:40:28;68.40;;;46.87;;
2624;SDS011;1322;53.256;10.386;2022-08-19T09:42:54;57.63;;;32.13;;
2624;SDS011;1322;53.256;10.386;2022-08-19T09:45:22;34.13;;;22.93;;
2624;SDS011;1322;53.256;10.386;2022-08-19T09:47:48;36.57;;;23.07;;
2624;SDS011;1322;53.256;10.386;2022-08-19T09:50:15;36.23;;;21.67;;
2624;SDS011;1322;53.256;10.386;2022-08-19T09:52:43;29.53;;;21.93;;
2624;SDS011;1322;53.256;10.386;2022-08-19T09:55:09;39.20;;;25.10;;
2624;SDS011;1322;53.256;10.386;2022-08-19T09:57:36;38.53;;;22.27;;
2624;SDS011;1322;53.256;10.386;2022-08-19T10:00:03;44.10;;;25.30;;
2624;SDS011;1322;53.256;10.386;2022-08-19T10:02:31;34.83;;;21.90;;
2624;SDS011;1322;53.256;10.386;2022-08-19T10:04:57;39.87;;;24.70;;
2624;SDS011;1322;53.256;10.386;2022-08-19T10:07:41;34.10;;;23.73;;
2624;SDS011;1322;53.256;10.386;2022-08-19T10:10:07;39.40;;;24.33;;
2624;SDS011;1322;53.256;10.386;2022-08-19T10:12:34;35.60;;;21.53;;
2624;SDS011;1322;53.256;10.386;2022-08-19T10:15:00;39.07;;;26.43;;
2624;SDS011;1322;53.256;10.386;2022-08-19T10:17:26;39.97;;;23.50;;
2624;SDS011;1322;53.256;10.386;2022-08-19T10:19:53;32.40;;;23.43;;
2624;SDS011;1322;53.256;10.386;2022-08-19T10:22:19;40.70;;;23.30;;
2624;SDS011;1322;53.256;10.386;2022-08-19T10:24:48;35.47;;;22.50;;
2624;SDS011;1322;53.256;10.386;2022-08-19T10:27:14;37.63;;;24.27;;
2624;SDS011;1322;53.256;10.386;2022-08-19T10:29:40;39.83;;;23.40;;
2624;SDS011;1322;53.256;10.386;2022-08-19T10:32:06;37.97;;;25.53;;
2624;SDS011;1322;53.256;10.386;2022-08-19T10:34:33;45.73;;;28.10;;
2624;SDS011;1322;53.256;10.386;2022-08-19T10:37:01;46.20;;;28.10;;
2624;SDS011;1322;53.256;10.386;2022-08-19T10:39:30;39.03;;;25.30;;
2624;SDS011;1322;53.256;10.386;2022-08-19T10:41:57;37.60;;;25.37;;
2624;SDS011;1322;53.256;10.386;2022-08-19T10:44:23;43.40;;;27.70;;
2624;SDS011;1322;53.256;10.386;2022-08-19T10:46:49;46.40;;;26.20;;
2624;SDS011;1322;53.256;10.386;2022-08-19T10:49:15;49.43;;;33.03;;
2624;SDS011;1322;53.256;10.386;2022-08-19T10:51:41;40.50;;;27.87;;
2624;SDS011;1322;53.256;10.386;2022-08-19T10:54:26;42.87;;;26.43;;
2624;SDS011;1322;53.256;10.386;2022-08-19T10:57:12;42.03;;;28.37;;
2624;SDS011;1322;53.256;10.386;2022-08-19T10:59:38;39.97;;;27.43;;
2624;SDS011;1322;53.256;10.386;2022-08-19T11:02:05;50.80;;;31.27;;
2624;SDS011;1322;53.256;10.386;2022-08-19T11:04:34;46.07;;;28.93;;
2624;SDS011;1322;53.256;10.386;2022-08-19T11:07:00;41.67;;;28.60;;
2624;SDS011;1322;53.256;10.386;2022-08-19T11:09:26;42.87;;;29.23;;
2624;SDS011;1322;53.256;10.386;2022-08-19T11:11:54;39.47;;;30.60;;
2624;SDS011;1322;53.256;10.386;2022-08-19T11:14:21;47.40;;;29.60;;
2624;SDS011;1322;53.256;10.386;2022-08-19T11:16:50;47.03;;;31.40;;
2624;SDS011;1322;53.256;10.386;2022-08-19T11:19:18;44.73;;;30.73;;
2624;SDS011;1322;53.256;10.386;2022-08-19T11:21:45;48.30;;;30.63;;
2624;SDS011;1322;53.256;10.386;2022-08-19T11:24:17;43.73;;;29.53;;
2624;SDS011;1322;53.256;10.386;2022-08-19T11:26:45;43.20;;;28.57;;
2624;SDS011;1322;53.256;10.386;2022-08-19T11:29:16;40.13;;;26.47;;
2624;SDS011;1322;53.256;10.386;2022-08-19T11:31:45;43.67;;;28.90;;
2624;SDS011;1322;53.256;10.386;2022-08-19T11:34:17;41.60;;;26.87;;
2624;SDS011;1322;53.256;10.386;2022-08-19T11:36:47;42.40;;;28.10;;
2624;SDS011;1322;53.256;10.386;2022-08-19T11:39:16;46.73;;;31.27;;
2624;SDS011;1322;53.256;10.386;2022-08-19T11:41:43;44.97;;;29.90;;
2624;SDS011;1322;53.256;10.386;2022-08-19T11:44:09;49.40;;;31.30;;
2624;SDS011;1322;53.256;10.386;2022-08-19T11:46:35;39.77;;;30.57;;
2624;SDS011;1322;53.256;10.386;2022-08-19T11:49:02;49.93;;;29.33;;
2624;SDS011;1322;53.256;10.386;2022-08-19T11:51:29;41.60;;;31.63;;
2624;SDS011;1322;53.256;10.386;2022-08-19T11:53:56;46.17;;;32.63;;
2624;SDS011;1322;53.256;10.386;2022-08-19T11:56:24;51.30;;;34.30;;
2624;SDS011;1322;53.256;10.386;2022-08-19T11:58:50;46.83;;;33.80;;
2624;SDS011;1322;53.256;10.386;2022-08-19T12:01:18;48.67;;;31.97;;
2624;SDS011;1322;53.256;10.386;2022-08-19T12:03:46;41.33;;;32.27;;
2624;SDS011;1322;53.256;10.386;2022-08-19T12:06:15;40.17;;;31.50;;
2624;SDS011;1322;53.256;10.386;2022-08-19T12:08:44;44.10;;;32.07;;
2624;SDS011;1322;53.256;10.386;2022-08-19T12:11:11;42.33;;;33.17;;
2624;SDS011;1322;53.256;10.386;2022-08-19T12:13:38;40.17;;;30.40;;
2624;SDS011;1322;53.256;10.386;2022-08-19T12:16:08;43.70;;;33.33;;
2624;SDS011;1322;53.256;10.386;2022-08-19T12:18:40;41.80;;;31.20;;
2624;SDS011;1322;53.256;10.386;2022-08-19T12:21:08;43.90;;;33.07;;
2624;SDS011;1322;53.256;10.386;2022-08-19T12:23:35;41.63;;;33.33;;
2624;SDS011;1322;53.256;10.386;2022-08-19T12:26:02;46.83;;;33.67;;
2624;SDS011;1322;53.256;10.386;2022-08-19T12:28:28;43.67;;;35.97;;
2624;SDS011;1322;53.256;10.386;2022-08-19T12:30:55;39.43;;;32.63;;
2624;SDS011;1322;53.256;10.386;2022-08-19T12:33:21;41.67;;;33.07;;
2624;SDS011;1322;53.256;10.386;2022-08-19T12:35:49;42.50;;;30.90;;
2624;SDS011;1322;53.256;10.386;2022-08-19T12:38:15;45.77;;;33.10;;
2624;SDS011;1322;53.256;10.386;2022-08-19T12:40:41;38.30;;;34.13;;
2624;SDS011;1322;53.256;10.386;2022-08-19T12:43:10;45.53;;;32.57;;
2624;SDS011;1322;53.256;10.386;2022-08-19T12:45:36;41.07;;;34.37;;
2624;SDS011;1322;53.256;10.386;2022-08-19T12:48:02;47.10;;;34.50;;
2624;SDS011;1322;53.256;10.386;2022-08-19T12:50:29;38.90;;;31.40;;
2624;SDS011;1322;53.256;10.386;2022-08-19T12:52:55;39.90;;;32.10;;
2624;SDS011;1322;53.256;10.386;2022-08-19T12:55:22;35.57;;;30.93;;
2624;SDS011;1322;53.256;10.386;2022-08-19T12:57:47;40.03;;;32.00;;
2624;SDS011;1322;53.256;10.386;2022-08-19T13:00:17;38.17;;;32.10;;
2624;SDS011;1322;53.256;10.386;2022-08-19T13:02:46;40.87;;;32.07;;
2624;SDS011;1322;53.256;10.386;2022-08-19T13:05:16;36.87;;;31.00;;
2624;SDS011;1322;53.256;10.386;2022-08-19T13:07:48;35.73;;;29.80;;
2624;SDS011;1322;53.256;10.386;2022-08-19T13:10:15;33.87;;;27.87;;
2624;SDS011;1322;53.256;10.386;2022-08-19T13:12:43;31.43;;;27.17;;
2624;SDS011;1322;53.256;10.386;2022-08-19T13:15:09;35.47;;;27.97;;
2624;SDS011;1322;53.256;10.386;2022-08-19T13:17:36;34.53;;;27.90;;
2624;SDS011;1322;53.256;10.386;2022-08-19T13:20:02;34.27;;;28.63;;
2624;SDS011;1322;53.256;10.386;2022-08-19T13:22:29;32.47;;;28.50;;
2624;SDS011;1322;53.256;10.386;2022-08-19T13:24:54;33.77;;;29.07;;
2624;SDS011;1322;53.256;10.386;2022-08-19T13:27:20;33.20;;;27.90;;
2624;SDS011;1322;53.256;10.386;2022-08-19T13:29:45;32.83;;;28.90;;
2624;SDS011;1322;53.256;10.386;2022-08-19T13:32:29;32.10;;;28.40;;
2624;SDS011;1322;53.256;10.386;2022-08-19T13:35:13;40.17;;;30.23;;
2624;SDS011;1322;53.256;10.386;2022-08-19T13:37:40;33.30;;;29.20;;
2624;SDS011;1322;53.256;10.386;2022-08-19T13:40:06;28.73;;;25.67;;
2624;SDS011;1322;53.256;10.386;2022-08-19T13:42:39;30.10;;;26.77;;
2624;SDS011;1322;53.256;10.386;2022-08-19T13:45:05;34.77;;;28.20;;
2624;SDS011;1322;53.256;10.386;2022-08-19T13:47:32;30.40;;;27.10;;
2624;SDS011;1322;53.256;10.386;2022-08-19T13:50:04;30.13;;;26.73;;
2624;SDS011;1322;53.256;10.386;2022-08-19T13:52:29;29.77;;;26.03;;
2624;SDS011;1322;53.256;10.386;2022-08-19T13:54:55;29.53;;;25.60;;
2624;SDS011;1322;53.256;10.386;2022-08-19T13:57:21;34.13;;;28.07;;
2624;SDS011;1322;53.256;10.386;2022-08-19T13:59:47;32.07;;;27.70;;
2624;SDS011;1322;53.256;10.386;2022-08-19T14:02:12;28.77;;;25.77;;
2624;SDS011;1322;53.256;10.386;2022-08-19T14:04:38;35.67;;;27.47;;
2624;SDS011;1322;53.256;10.386;2022-08-19T14:07:03;30.90;;;25.47;;
2624;SDS011;1322;53.256;10.386;2022-08-19T14:09:29;30.17;;;27.10;;
2624;SDS011;1322;53.256;10.386;2022-08-19T14:11:55;29.90;;;26.70;;
2624;SDS011;1322;53.256;10.386;2022-08-19T14:14:21;34.57;;;26.77;;
2624;SDS011;1322;53.256;10.386;2022-08-19T14:16:47;30.50;;;27.20;;
2624;SDS011;1322;53.256;10.386;2022-08-19T14:19:13;28.03;;;24.67;;
2624;SDS011;1322;53.256;10.386;2022-08-19T14:21:40;30.33;;;25.83;;
2624;SDS011;1322;53.256;10.386;2022-08-19T14:24:06;26.13;;;23.27;;
2624;SDS011;1322;53.256;10.386;2022-08-19T14:26:33;25.10;;;21.60;;
2624;SDS011;1322;53.256;10.386;2022-08-19T14:28:58;24.97;;;21.27;;
2624;SDS011;1322;53.256;10.386;2022-08-19T14:31:26;26.70;;;23.90;;
2624;SDS011;1322;53.256;10.386;2022-08-19T14:33:52;30.20;;;25.10;;
2624;SDS011;1322;53.256;10.386;2022-08-19T14:36:18;26.53;;;23.13;;
2624;SDS011;1322;53.256;10.386;2022-08-19T14:38:45;25.40;;;22.80;;
2624;SDS011;1322;53.256;10.386;2022-08-19T14:41:12;24.60;;;21.93;;
2624;SDS011;1322;53.256;10.386;2022-08-19T14:43:41;27.83;;;24.90;;
2624;SDS011;1322;53.256;10.386;2022-08-19T14:46:07;28.00;;;25.20;;
2624;SDS011;1322;53.256;10.386;2022-08-19T14:48:35;25.90;;;23.23;;
2624;SDS011;1322;53.256;10.386;2022-08-19T14:51:03;27.93;;;25.13;;
2624;SDS011;1322;53.256;10.386;2022-08-19T14:53:29;30.60;;;23.27;;
2624;SDS011;1322;53.256;10.386;2022-08-19T14:55:54;28.90;;;25.80;;